Time;durP1;ratioP1;P1;durP2;ratioP2;P2;SDS_P1;SDS_P2;PMS_P1;PMS_P2;Temp;Humidity;BMP_temperature;BMP_pressure;BME280_temperature;BME280_humidity;BME280_pressure;Samples;Min_cycle;Max_cycle;Signal;HPM_P1;HPM_P2
2023/04/13 00:02:29;;;;;;;3.78;1.67;;;18.60;99.90;;;;;;5095160;28;20194;-76
2023/04/13 00:05:02;;;;;;;2.58;1.55;;;18.60;99.90;;;;;;5091637;28;20202;-76
2023/04/13 00:07:37;;;;;;;3.42;1.55;;;18.50;99.90;;;;;;5111167;27;20280;-76
2023/04/13 00:10:09;;;;;;;5.53;1.80;;;18.40;99.90;;;;;;5097640;27;20222;-76
2023/04/13 00:12:42;;;;;;;4.75;1.88;;;18.50;99.90;;;;;;5099057;27;20325;-76
2023/04/13 00:15:13;;;;;;;7.47;2.22;;;18.40;99.90;;;;;;5097842;27;20307;-76
2023/04/13 00:17:46;;;;;;;4.35;1.80;;;18.50;99.90;;;;;;5096568;27;20233;-77
2023/04/13 00:20:17;;;;;;;4.80;1.88;;;18.50;99.90;;;;;;5097666;27;20210;-76
2023/04/13 00:22:50;;;;;;;3.13;1.42;;;18.60;99.90;;;;;;5103428;27;20205;-76
2023/04/13 00:25:22;;;;;;;3.95;1.30;;;18.70;99.90;;;;;;5097403;27;20198;-76
2023/04/13 00:27:54;;;;;;;4.13;1.50;;;18.70;99.90;;;;;;5097303;27;20754;-75
2023/04/13 00:30:25;;;;;;;2.83;1.30;;;18.80;99.90;;;;;;5098592;27;20197;-76
2023/04/13 00:32:57;;;;;;;3.97;1.20;;;19.00;99.90;;;;;;5097546;27;20198;-76
2023/04/13 00:35:28;;;;;;;3.35;1.20;;;19.20;99.90;;;;;;5098458;27;21067;-76
2023/04/13 00:38:01;;;;;;;2.83;1.10;;;19.40;99.90;;;;;;5095106;27;21069;-75
2023/04/13 00:40:32;;;;;;;2.75;1.20;;;19.40;99.90;;;;;;5096579;27;20861;-76
2023/04/13 00:43:04;;;;;;;3.88;1.42;;;19.60;99.90;;;;;;5096546;27;20197;-76
2023/04/13 00:45:38;;;;;;;3.30;1.33;;;19.70;99.90;;;;;;5096731;27;20568;-77
2023/04/13 00:48:11;;;;;;;3.97;1.55;;;19.80;99.90;;;;;;5097070;27;20209;-76
2023/04/13 00:50:44;;;;;;;2.83;1.30;;;19.90;99.90;;;;;;5101402;27;22570;-77
2023/04/13 00:53:17;;;;;;;4.07;1.23;;;20.10;99.90;;;;;;5097080;27;20665;-77
2023/04/13 00:55:48;;;;;;;4.05;1.50;;;20.20;99.90;;;;;;5097743;27;20406;-76
2023/04/13 00:58:20;;;;;;;5.97;1.50;;;20.30;99.90;;;;;;5096709;27;20230;-77
2023/04/13 01:00:51;;;;;;;4.10;1.25;;;20.40;99.90;;;;;;5097512;27;20194;-77
2023/04/13 01:03:22;;;;;;;5.20;1.10;;;20.50;99.90;;;;;;5096776;27;20205;-77
2023/04/13 01:05:58;;;;;;;4.25;1.10;;;20.50;99.90;;;;;;5095706;27;20202;-77
2023/04/13 01:08:37;;;;;;;2.20;0.88;;;20.50;99.90;;;;;;5111436;27;20212;-77
2023/04/13 01:11:13;;;;;;;1.65;0.80;;;20.60;99.90;;;;;;5096056;27;20202;-76
2023/04/13 01:13:50;;;;;;;3.15;0.90;;;20.70;99.90;;;;;;5096161;27;20207;-75
2023/04/13 01:16:26;;;;;;;2.83;0.93;;;20.70;99.90;;;;;;5094442;27;20570;-76
2023/04/13 01:18:58;;;;;;;3.90;0.90;;;20.80;99.90;;;;;;5095856;27;20228;-76
2023/04/13 01:21:32;;;;;;;3.05;1.13;;;21.00;99.90;;;;;;5101861;27;20553;-76
2023/04/13 01:24:19;;;;;;;4.13;0.82;;;21.20;99.90;;;;;;5096404;27;21534;-76
2023/04/13 01:26:58;;;;;;;2.30;0.63;;;21.20;99.90;;;;;;5098946;27;20224;-76
2023/04/13 01:29:31;;;;;;;2.55;0.85;;;21.30;99.90;;;;;;5095998;27;20201;-76
2023/04/13 01:32:03;;;;;;;1.33;0.82;;;21.40;99.90;;;;;;5097071;27;20656;-77
2023/04/13 01:34:34;;;;;;;2.83;0.98;;;21.60;99.90;;;;;;5097890;27;21116;-77
2023/04/13 01:37:05;;;;;;;2.47;1.00;;;21.60;99.90;;;;;;5097201;27;20592;-77
2023/04/13 01:39:38;;;;;;;2.53;0.73;;;21.80;99.90;;;;;;5098395;27;20202;-77
2023/04/13 01:42:09;;;;;;;2.03;0.82;;;21.90;99.90;;;;;;5098654;27;20197;-76
2023/04/13 01:44:44;;;;;;;5.38;1.08;;;21.90;99.90;;;;;;5113749;27;20209;-77
2023/04/13 01:47:20;;;;;;;1.80;0.77;;;22.00;99.90;;;;;;5133422;27;20197;-77
2023/04/13 01:49:58;;;;;;;4.85;1.20;;;21.90;99.90;;;;;;5131373;27;20220;-77
2023/04/13 01:52:30;;;;;;;2.88;0.80;;;22.00;99.90;;;;;;5102093;27;20201;-77
2023/04/13 01:55:02;;;;;;;2.67;0.82;;;22.00;99.90;;;;;;5094082;27;20544;-76
2023/04/13 01:57:35;;;;;;;2.97;0.82;;;22.10;99.90;;;;;;5096823;27;20639;-76
2023/04/13 02:00:13;;;;;;;4.13;1.05;;;22.20;99.90;;;;;;5095899;27;20334;-76
2023/04/13 02:02:44;;;;;;;3.80;0.95;;;22.20;99.90;;;;;;5092986;27;20193;-77
2023/04/13 02:05:15;;;;;;;4.03;1.05;;;22.30;99.90;;;;;;5097383;27;20214;-76
2023/04/13 02:07:46;;;;;;;2.33;0.90;;;22.40;99.90;;;;;;5111201;27;20665;-76
2023/04/13 02:10:17;;;;;;;3.08;0.70;;;22.50;99.90;;;;;;5098720;27;20210;-77
2023/04/13 02:12:48;;;;;;;5.82;0.98;;;22.40;99.90;;;;;;5101481;27;20936;-77
2023/04/13 02:15:22;;;;;;;3.80;0.98;;;22.40;99.90;;;;;;5109858;27;20191;-77
2023/04/13 02:17:53;;;;;;;6.13;1.10;;;22.40;99.90;;;;;;5130974;27;20206;-78
2023/04/13 02:20:24;;;;;;;4.65;1.00;;;22.40;99.90;;;;;;5126433;27;20218;-77
2023/04/13 02:22:55;;;;;;;2.33;0.73;;;22.30;99.90;;;;;;5127188;27;20198;-77
2023/04/13 02:25:26;;;;;;;2.85;1.17;;;22.20;99.90;;;;;;5112158;27;20677;-76
2023/04/13 02:27:58;;;;;;;3.35;1.10;;;22.00;99.90;;;;;;5123420;27;20721;-77
2023/04/13 02:30:31;;;;;;;2.50;1.10;;;21.80;99.90;;;;;;5131343;27;20198;-76
2023/04/13 02:33:02;;;;;;;2.78;1.00;;;21.90;99.90;;;;;;5130981;27;20190;-77
2023/04/13 02:35:37;;;;;;;2.80;0.75;;;22.00;99.90;;;;;;5129316;27;20190;-77
2023/04/13 02:38:09;;;;;;;4.05;0.88;;;21.90;99.90;;;;;;5128458;27;20274;-77
2023/04/13 02:40:41;;;;;;;3.50;0.88;;;21.90;99.90;;;;;;5127142;27;20194;-77
2023/04/13 02:43:13;;;;;;;3.85;0.77;;;22.10;99.90;;;;;;5116329;27;20190;-77
2023/04/13 02:45:46;;;;;;;3.80;1.00;;;22.20;99.90;;;;;;5130631;27;20194;-77
2023/04/13 02:48:17;;;;;;;3.10;0.73;;;22.30;99.90;;;;;;5128373;27;20197;-77
2023/04/13 02:50:48;;;;;;;4.78;1.08;;;22.50;99.90;;;;;;5130908;27;20660;-77
2023/04/13 02:53:20;;;;;;;3.33;0.85;;;22.70;99.90;;;;;;5129756;27;20197;-75
2023/04/13 02:55:52;;;;;;;5.70;1.48;;;22.70;99.90;;;;;;5114868;27;20195;-76
2023/04/13 02:58:24;;;;;;;4.68;1.60;;;22.90;99.90;;;;;;5123874;27;20225;-76
2023/04/13 03:00:58;;;;;;;3.90;1.10;;;22.90;99.90;;;;;;5132430;27;20198;-76
2023/04/13 03:03:30;;;;;;;4.43;1.52;;;23.00;99.90;;;;;;5130111;27;20242;-76
2023/04/13 03:06:02;;;;;;;8.90;1.77;;;23.10;99.90;;;;;;5131268;27;20209;-77
2023/04/13 03:08:33;;;;;;;5.30;0.80;;;23.10;99.90;;;;;;5130803;27;20201;-76
2023/04/13 03:11:05;;;;;;;3.42;1.05;;;23.10;99.90;;;;;;5120086;28;20207;-76
2023/04/13 03:13:36;;;;;;;4.53;1.08;;;23.10;99.90;;;;;;5125991;28;20700;-77
2023/04/13 03:16:10;;;;;;;4.82;0.75;;;23.10;99.90;;;;;;5129359;27;20198;-77
2023/04/13 03:18:41;;;;;;;8.00;0.90;;;23.10;99.90;;;;;;5132787;27;20772;-76
2023/04/13 03:21:12;;;;;;;4.50;0.90;;;23.10;99.90;;;;;;5127477;28;20194;-77
2023/04/13 03:23:45;;;;;;;4.43;1.10;;;23.20;99.90;;;;;;5123438;28;20226;-76
2023/04/13 03:26:19;;;;;;;5.45;0.90;;;23.20;99.90;;;;;;5113806;28;20214;-77
2023/04/13 03:28:50;;;;;;;4.75;1.00;;;23.40;99.90;;;;;;5132367;28;20215;-76
2023/04/13 03:31:23;;;;;;;3.38;0.77;;;23.40;99.90;;;;;;5115725;28;20190;-76
2023/04/13 03:33:56;;;;;;;2.88;0.73;;;23.20;99.90;;;;;;5131560;27;20561;-77
2023/04/13 03:36:28;;;;;;;2.65;0.95;;;23.10;99.90;;;;;;5133095;27;20194;-76
2023/04/13 03:39:00;;;;;;;4.25;0.90;;;23.10;99.90;;;;;;5130576;27;20588;-77
2023/04/13 03:41:31;;;;;;;4.90;0.98;;;22.90;99.90;;;;;;5129194;27;20248;-77
2023/04/13 03:44:02;;;;;;;3.72;1.38;;;22.80;99.90;;;;;;5124853;27;20190;-76
2023/04/13 03:46:36;;;;;;;4.80;1.20;;;22.80;99.90;;;;;;5135235;27;20198;-77
2023/04/13 03:49:10;;;;;;;5.80;1.10;;;23.00;99.90;;;;;;5134237;27;20562;-77
2023/04/13 03:51:41;;;;;;;5.65;0.88;;;23.10;99.90;;;;;;5133586;27;20189;-77
2023/04/13 03:54:12;;;;;;;16.20;4.22;;;23.10;99.90;;;;;;5133736;27;20279;-77
2023/04/13 03:56:44;;;;;;;5.25;1.45;;;23.20;99.90;;;;;;5133990;27;20193;-76
2023/04/13 03:59:15;;;;;;;3.92;0.88;;;23.20;99.90;;;;;;5124473;27;20225;-76
2023/04/13 04:01:48;;;;;;;4.95;0.90;;;23.30;99.90;;;;;;5128627;27;20198;-76
2023/04/13 04:04:20;;;;;;;5.65;1.27;;;23.20;99.90;;;;;;5133934;27;20194;-76
2023/04/13 04:06:51;;;;;;;4.82;1.17;;;23.20;99.90;;;;;;5132212;27;20652;-76
2023/04/13 04:09:22;;;;;;;3.58;0.80;;;23.10;99.90;;;;;;5134093;27;20205;-76
2023/04/13 04:11:53;;;;;;;3.00;1.17;;;23.10;99.90;;;;;;5135074;27;20197;-76
2023/04/13 04:14:25;;;;;;;5.32;0.98;;;23.00;99.90;;;;;;5133941;27;20664;-77
2023/04/13 04:16:58;;;;;;;6.13;0.90;;;23.00;99.90;;;;;;5136772;27;20542;-76
2023/04/13 04:19:29;;;;;;;4.95;0.95;;;23.00;99.90;;;;;;5131502;27;20222;-76
2023/04/13 04:22:03;;;;;;;7.35;1.05;;;22.90;99.90;;;;;;5132741;27;20225;-76
2023/04/13 04:24:34;;;;;;;6.28;1.10;;;22.80;99.90;;;;;;5118900;27;20664;-76
2023/04/13 04:27:06;;;;;;;5.85;1.02;;;22.90;99.90;;;;;;5134609;27;20198;-77
2023/04/13 04:29:37;;;;;;;1.98;0.70;;;22.90;99.90;;;;;;5132891;27;20190;-76
2023/04/13 04:32:11;;;;;;;5.32;0.70;;;22.90;99.90;;;;;;5133405;27;20560;-77
2023/04/13 04:34:43;;;;;;;4.53;0.90;;;22.90;99.90;;;;;;5132202;27;20190;-77
2023/04/13 04:37:14;;;;;;;5.03;0.73;;;22.90;99.90;;;;;;5125790;27;20199;-76
2023/04/13 04:39:45;;;;;;;5.18;0.82;;;22.90;99.90;;;;;;5119871;27;20226;-77
2023/04/13 04:42:19;;;;;;;2.83;0.70;;;22.90;99.90;;;;;;5132893;27;20208;-77
2023/04/13 04:44:51;;;;;;;3.58;0.90;;;22.90;99.90;;;;;;5132336;27;20203;-77
2023/04/13 04:47:24;;;;;;;5.38;1.15;;;22.90;99.90;;;;;;5128315;27;20190;-75
2023/04/13 04:49:56;;;;;;;4.90;0.93;;;22.90;99.90;;;;;;5133523;27;20193;-77
2023/04/13 04:52:28;;;;;;;6.30;1.00;;;23.00;99.90;;;;;;5134181;27;20202;-77
2023/04/13 04:55:01;;;;;;;4.88;0.80;;;23.00;99.90;;;;;;5129740;27;20201;-76
2023/04/13 04:57:32;;;;;;;3.03;0.77;;;22.90;99.90;;;;;;5121753;27;20575;-76
2023/04/13 05:00:05;;;;;;;6.05;1.05;;;22.80;99.90;;;;;;5133308;27;20221;-77
2023/04/13 05:02:38;;;;;;;2.55;0.73;;;22.80;99.90;;;;;;5133260;27;20198;-77
2023/04/13 05:05:10;;;;;;;4.38;0.70;;;22.70;99.90;;;;;;5134122;27;20205;-76
2023/04/13 05:07:41;;;;;;;3.40;0.60;;;22.70;99.90;;;;;;5120347;27;20199;-76
2023/04/13 05:10:12;;;;;;;4.38;0.90;;;22.60;99.90;;;;;;5126665;27;20194;-77
2023/04/13 05:12:46;;;;;;;1.85;0.70;;;22.60;99.90;;;;;;5134457;27;20242;-76
2023/04/13 05:15:18;;;;;;;1.63;0.63;;;22.60;99.90;;;;;;5126418;27;20723;-77
2023/04/13 05:17:55;;;;;;;6.75;1.00;;;22.60;99.90;;;;;;5123675;27;20202;-76
2023/04/13 05:20:26;;;;;;;4.60;0.98;;;22.50;99.90;;;;;;5114953;27;20238;-76
2023/04/13 05:22:58;;;;;;;3.78;0.93;;;22.60;99.90;;;;;;5114596;28;20801;-77
2023/04/13 05:25:29;;;;;;;4.00;1.02;;;22.60;99.90;;;;;;5126444;27;20261;-77
2023/04/13 05:28:00;;;;;;;3.65;1.00;;;22.70;99.90;;;;;;5130012;27;20201;-77
2023/04/13 05:30:31;;;;;;;5.05;0.75;;;22.70;99.90;;;;;;5134001;27;20206;-77
2023/04/13 05:33:06;;;;;;;5.57;1.15;;;22.60;99.90;;;;;;5132947;27;20198;-76
2023/04/13 05:35:38;;;;;;;1.80;0.90;;;22.60;99.90;;;;;;5135698;27;20193;-77
2023/04/13 05:38:09;;;;;;;3.78;0.80;;;22.50;99.90;;;;;;5134769;27;20205;-77
2023/04/13 05:40:40;;;;;;;4.65;0.82;;;22.50;99.90;;;;;;5135338;27;20228;-76
2023/04/13 05:43:13;;;;;;;7.15;1.00;;;22.50;99.90;;;;;;5127730;27;20191;-77
2023/04/13 05:45:44;;;;;;;5.45;1.00;;;22.50;99.90;;;;;;5126049;27;20205;-77
2023/04/13 05:48:17;;;;;;;5.70;0.90;;;22.50;99.90;;;;;;5129378;27;20204;-75
2023/04/13 05:50:48;;;;;;;3.95;0.98;;;22.50;99.90;;;;;;5132641;27;20708;-77
2023/04/13 05:53:19;;;;;;;3.55;1.00;;;22.60;99.90;;;;;;5134306;27;20214;-77
2023/04/13 05:55:51;;;;;;;5.32;1.10;;;22.60;99.90;;;;;;5134531;27;20198;-77
2023/04/13 05:58:25;;;;;;;6.30;1.20;;;22.60;99.90;;;;;;5134347;27;20581;-77
2023/04/13 06:00:56;;;;;;;3.72;1.10;;;22.70;99.90;;;;;;5130728;27;20193;-77
2023/04/13 06:03:29;;;;;;;3.08;0.93;;;22.80;99.90;;;;;;5135622;27;20197;-77
2023/04/13 06:06:00;;;;;;;7.22;1.20;;;22.90;99.90;;;;;;5118049;27;20195;-76
2023/04/13 06:08:32;;;;;;;5.28;1.23;;;23.00;99.90;;;;;;5132126;27;20777;-77
2023/04/13 06:11:04;;;;;;;6.28;0.95;;;23.00;99.90;;;;;;5132288;27;20194;-78
2023/04/13 06:13:35;;;;;;;4.60;0.70;;;23.10;99.90;;;;;;5132826;27;20190;-77
2023/04/13 06:16:07;;;;;;;3.70;1.10;;;23.10;99.90;;;;;;5132481;27;20222;-78
2023/04/13 06:18:40;;;;;;;2.33;1.00;;;23.10;99.90;;;;;;5131021;27;20197;-78
2023/04/13 06:21:14;;;;;;;5.95;0.80;;;23.20;99.90;;;;;;5127953;27;20195;-77
2023/04/13 06:23:46;;;;;;;4.70;0.70;;;23.30;99.90;;;;;;5121981;27;20293;-78
2023/04/13 06:26:17;;;;;;;5.53;0.90;;;23.30;99.90;;;;;;5129002;27;20194;-77
2023/04/13 06:28:48;;;;;;;4.80;0.80;;;23.40;99.90;;;;;;5134954;27;20247;-77
2023/04/13 06:31:20;;;;;;;3.17;0.82;;;23.50;99.90;;;;;;5120839;27;20270;-77
2023/04/13 06:33:53;;;;;;;4.68;1.10;;;23.40;99.90;;;;;;5118228;27;20281;-77
2023/04/13 06:36:24;;;;;;;4.80;1.20;;;23.40;99.90;;;;;;5129875;27;20201;-77
2023/04/13 06:38:55;;;;;;;3.70;0.80;;;23.30;99.90;;;;;;5131550;27;20646;-77
2023/04/13 06:41:26;;;;;;;3.17;0.68;;;23.10;99.90;;;;;;5125155;27;20190;-78
2023/04/13 06:43:57;;;;;;;2.88;1.05;;;23.00;99.90;;;;;;5129623;27;20186;-79
2023/04/13 06:46:28;;;;;;;5.80;1.40;;;22.90;99.90;;;;;;5119485;27;20204;-78
2023/04/13 06:49:02;;;;;;;4.95;0.95;;;22.80;99.90;;;;;;5128387;27;20664;-77
2023/04/13 06:51:33;;;;;;;3.72;1.13;;;22.80;99.90;;;;;;5129968;27;20194;-77
2023/04/13 06:54:04;;;;;;;5.13;0.80;;;22.80;99.90;;;;;;5117775;27;20201;-78
2023/04/13 06:56:35;;;;;;;2.30;0.80;;;22.60;99.90;;;;;;5122683;27;20198;-76
2023/04/13 06:59:07;;;;;;;5.80;1.02;;;22.40;99.90;;;;;;5133111;27;20222;-77
2023/04/13 07:01:38;;;;;;;3.58;0.80;;;22.20;99.90;;;;;;5129985;27;20194;-77
2023/04/13 07:04:11;;;;;;;4.70;0.95;;;22.10;99.90;;;;;;5132222;27;20383;-78
2023/04/13 07:06:43;;;;;;;6.82;1.38;;;21.90;99.90;;;;;;5123017;27;20201;-78
2023/04/13 07:09:14;;;;;;;7.32;1.58;;;21.70;99.90;;;;;;5130356;27;20545;-77
2023/04/13 07:11:45;;;;;;;5.15;1.10;;;21.30;99.90;;;;;;5127633;27;20210;-78
2023/04/13 07:14:18;;;;;;;3.17;0.90;;;20.90;99.90;;;;;;5128761;27;20208;-77
2023/04/13 07:16:50;;;;;;;2.38;0.90;;;20.80;99.90;;;;;;5128146;27;20198;-77
2023/04/13 07:19:24;;;;;;;2.83;1.25;;;20.60;99.90;;;;;;5132958;27;20274;-77
2023/04/13 07:21:55;;;;;;;5.43;1.70;;;20.50;99.90;;;;;;5123222;27;20213;-76
2023/04/13 07:24:26;;;;;;;4.00;1.13;;;20.40;99.90;;;;;;5127790;27;20222;-77
2023/04/13 07:26:58;;;;;;;5.10;2.15;;;20.30;99.90;;;;;;5127796;27;20207;-77
2023/04/13 07:29:29;;;;;;;2.95;1.17;;;20.10;99.90;;;;;;5135242;27;20251;-77
2023/04/13 07:32:03;;;;;;;2.45;0.80;;;20.10;99.90;;;;;;5135763;27;20545;-76
2023/04/13 07:34:37;;;;;;;1.75;0.80;;;20.10;99.90;;;;;;5135237;27;20194;-77
2023/04/13 07:37:08;;;;;;;6.43;1.80;;;20.00;99.90;;;;;;5130543;27;20538;-79
2023/04/13 07:39:39;;;;;;;4.95;1.90;;;20.10;99.90;;;;;;5117447;27;20557;-77
2023/04/13 07:42:11;;;;;;;3.75;1.65;;;20.10;99.90;;;;;;5130056;27;20209;-77
2023/04/13 07:44:42;;;;;;;3.78;1.08;;;20.00;99.90;;;;;;5119851;27;20201;-77
2023/04/13 07:47:13;;;;;;;3.92;1.25;;;20.00;99.90;;;;;;5122297;27;20186;-79
2023/04/13 07:49:46;;;;;;;4.97;1.10;;;20.00;99.90;;;;;;5121078;27;20243;-77
2023/04/13 07:52:17;;;;;;;2.92;1.40;;;19.90;99.90;;;;;;5126668;27;20198;-77
2023/04/13 07:54:48;;;;;;;6.53;1.05;;;19.90;99.90;;;;;;5114892;27;20189;-77
2023/04/13 07:57:20;;;;;;;5.53;1.67;;;19.90;99.90;;;;;;5122081;27;20197;-77
2023/04/13 07:59:51;;;;;;;6.28;1.30;;;20.00;99.90;;;;;;5133544;27;20218;-75
2023/04/13 08:02:23;;;;;;;6.95;1.77;;;19.90;99.90;;;;;;5135006;27;20202;-76
2023/04/13 08:04:56;;;;;;;8.38;2.45;;;19.90;99.90;;;;;;5134335;27;20640;-76
2023/04/13 08:07:28;;;;;;;7.60;2.17;;;19.90;99.90;;;;;;5134523;27;20198;-77
2023/04/13 08:09:59;;;;;;;7.70;1.92;;;19.90;99.90;;;;;;5133204;27;20547;-77
2023/04/13 08:12:30;;;;;;;7.45;1.83;;;19.90;99.90;;;;;;5134485;27;20300;-76
2023/04/13 08:15:01;;;;;;;11.52;2.20;;;19.90;99.90;;;;;;5133769;27;20202;-76
2023/04/13 08:17:32;;;;;;;7.82;2.33;;;19.90;99.90;;;;;;5132539;27;20220;-77
2023/04/13 08:20:07;;;;;;;7.18;1.90;;;19.90;99.90;;;;;;5131563;27;20217;-77
2023/04/13 08:22:38;;;;;;;13.02;2.88;;;19.90;99.90;;;;;;5118420;27;20186;-75
2023/04/13 08:25:10;;;;;;;12.20;3.10;;;19.90;99.90;;;;;;5130657;27;20719;-77
2023/04/13 08:27:41;;;;;;;10.25;3.00;;;19.90;99.90;;;;;;5134129;27;20243;-77
2023/04/13 08:30:13;;;;;;;12.15;3.72;;;20.00;99.90;;;;;;5127148;27;20656;-77
2023/04/13 08:32:45;;;;;;;8.43;3.65;;;19.90;99.90;;;;;;5132144;27;20194;-77
2023/04/13 08:35:19;;;;;;;14.10;5.53;;;20.00;99.90;;;;;;5125897;27;20201;-77
2023/04/13 08:37:50;;;;;;;9.55;2.72;;;20.00;99.90;;;;;;5131426;27;20674;-77
2023/04/13 08:40:21;;;;;;;8.60;2.10;;;20.00;99.90;;;;;;5132053;27;20222;-77
2023/04/13 08:42:55;;;;;;;10.10;2.30;;;20.00;99.90;;;;;;5113606;27;20198;-77
2023/04/13 08:45:27;;;;;;;7.18;2.67;;;20.00;99.90;;;;;;5124928;27;20205;-77
2023/04/13 08:47:58;;;;;;;9.50;2.28;;;20.00;99.90;;;;;;5117678;27;20206;-77
2023/04/13 08:50:32;;;;;;;6.07;2.20;;;20.00;99.90;;;;;;5118004;27;20201;-77
2023/04/13 08:53:04;;;;;;;10.32;4.68;;;19.90;99.90;;;;;;5133181;27;20702;-76
2023/04/13 08:55:35;;;;;;;13.73;4.97;;;19.90;99.90;;;;;;5134261;27;20644;-77
2023/04/13 08:58:07;;;;;;;7.22;2.50;;;20.00;99.90;;;;;;5139288;27;20672;-76
2023/04/13 09:00:39;;;;;;;11.48;3.58;;;20.00;99.90;;;;;;5130329;27;20229;-77
2023/04/13 09:03:13;;;;;;;7.85;3.30;;;19.90;99.90;;;;;;5141744;27;20190;-77
2023/04/13 09:05:46;;;;;;;9.07;2.75;;;19.90;99.90;;;;;;5116324;28;20216;-76
2023/04/13 09:08:18;;;;;;;14.95;3.42;;;19.90;99.90;;;;;;5137309;27;20206;-78
2023/04/13 09:10:49;;;;;;;9.48;3.55;;;19.90;99.90;;;;;;5136512;27;20457;-76
2023/04/13 09:13:20;;;;;;;5.25;2.03;;;19.90;99.90;;;;;;5136355;27;20209;-77
2023/04/13 09:15:51;;;;;;;5.63;2.05;;;19.90;99.90;;;;;;5137154;27;20205;-77
2023/04/13 09:18:22;;;;;;;6.82;1.70;;;19.90;99.90;;;;;;5131169;27;20554;-76
2023/04/13 09:21:02;;;;;;;16.13;5.70;;;19.90;99.90;;;;;;5130949;27;20213;-76
2023/04/13 09:23:33;;;;;;;15.65;5.00;;;19.90;99.90;;;;;;5135941;27;20237;-76
2023/04/13 09:26:10;;;;;;;14.07;4.38;;;20.00;99.90;;;;;;5136607;27;20208;-76
2023/04/13 09:28:49;;;;;;;6.75;2.97;;;20.00;99.90;;;;;;5132873;27;20195;-76
2023/04/13 09:31:20;;;;;;;13.45;5.97;;;19.80;99.90;;;;;;5124088;27;20197;-77
2023/04/13 09:33:53;;;;;;;11.60;5.70;;;19.80;99.90;;;;;;5132446;27;20291;-77
2023/04/13 09:36:27;;;;;;;8.00;3.85;;;19.80;99.90;;;;;;5125171;27;20190;-77
2023/04/13 09:38:59;;;;;;;7.03;2.30;;;19.80;99.90;;;;;;5131057;27;20599;-77
2023/04/13 09:41:37;;;;;;;9.75;2.80;;;19.80;99.90;;;;;;5129402;27;20240;-77
2023/04/13 09:44:22;;;;;;;7.72;3.30;;;19.80;99.90;;;;;;5132259;27;20691;-77
2023/04/13 09:47:02;;;;;;;16.58;5.78;;;19.80;99.90;;;;;;5127955;27;20194;-76
2023/04/13 09:49:41;;;;;;;9.40;3.03;;;19.80;99.90;;;;;;5122726;27;20194;-75
2023/04/13 09:52:24;;;;;;;7.47;3.40;;;19.80;99.90;;;;;;5130755;27;20209;-76
2023/04/13 09:54:57;;;;;;;9.60;4.07;;;19.80;99.90;;;;;;5120728;27;20186;-77
2023/04/13 09:57:29;;;;;;;8.45;3.85;;;19.80;99.90;;;;;;5121690;27;20198;-77
2023/04/13 10:00:01;;;;;;;8.25;3.80;;;19.80;99.90;;;;;;5126984;27;20607;-76
2023/04/13 10:02:32;;;;;;;6.68;3.20;;;19.80;99.90;;;;;;5140092;27;20205;-74
2023/04/13 10:05:04;;;;;;;6.93;3.10;;;19.80;99.90;;;;;;5125104;27;20190;-75
2023/04/13 10:07:40;;;;;;;6.30;2.85;;;19.80;99.90;;;;;;5130908;27;20190;-76
2023/04/13 10:10:12;;;;;;;8.40;3.15;;;19.70;99.90;;;;;;5118099;27;20205;-76
2023/04/13 10:12:49;;;;;;;10.23;2.83;;;19.70;99.90;;;;;;5131736;27;20664;-76
2023/04/13 10:15:38;;;;;;;7.43;3.20;;;19.70;99.90;;;;;;5131721;27;20610;-77
2023/04/13 10:18:21;;;;;;;15.52;2.97;;;19.70;99.90;;;;;;5131481;27;20663;-78
2023/04/13 10:20:53;;;;;;;9.90;1.60;;;19.60;99.90;;;;;;5119255;27;20225;-77
2023/04/13 10:23:27;;;;;;;10.43;2.80;;;19.60;99.90;;;;;;5122762;27;20237;-77
2023/04/13 10:25:59;;;;;;;6.32;1.95;;;19.50;99.90;;;;;;5132190;27;20283;-76
2023/04/13 10:28:30;;;;;;;4.38;1.25;;;19.50;99.90;;;;;;5129256;27;20694;-76
2023/04/13 10:31:07;;;;;;;4.68;1.60;;;19.50;99.90;;;;;;5131649;27;20660;-77
2023/04/13 10:33:49;;;;;;;4.45;1.35;;;19.50;99.90;;;;;;5130000;27;20225;-76
2023/04/13 10:36:21;;;;;;;5.68;1.60;;;19.50;99.90;;;;;;5131590;27;20270;-75
2023/04/13 10:38:54;;;;;;;4.63;1.60;;;19.50;99.90;;;;;;5131254;27;20718;-77
2023/04/13 10:41:28;;;;;;;5.07;2.00;;;19.50;99.90;;;;;;5131350;27;20695;-76
2023/04/13 10:44:07;;;;;;;6.90;2.42;;;19.50;99.90;;;;;;5124100;27;20558;-77
2023/04/13 10:46:38;;;;;;;5.60;1.98;;;19.50;99.90;;;;;;5131616;27;20218;-75
2023/04/13 10:49:09;;;;;;;7.03;2.03;;;19.50;99.90;;;;;;5129344;27;20194;-75
2023/04/13 10:51:45;;;;;;;5.07;1.70;;;19.50;99.90;;;;;;5111353;28;20574;-76
2023/04/13 10:54:18;;;;;;;5.07;1.83;;;19.50;99.90;;;;;;5123871;27;20194;-76
2023/04/13 10:56:58;;;;;;;9.63;2.03;;;19.50;99.90;;;;;;5130866;27;20201;-76
2023/04/13 10:59:45;;;;;;;4.47;2.00;;;19.50;99.90;;;;;;5128090;27;20197;-75
2023/04/13 11:02:17;;;;;;;5.53;1.33;;;19.50;99.90;;;;;;5136524;27;20232;-72
2023/04/13 11:04:49;;;;;;;4.18;1.55;;;19.40;99.90;;;;;;5133874;27;20198;-76
2023/04/13 11:07:22;;;;;;;5.93;1.90;;;19.40;99.90;;;;;;5130032;27;20204;-76
2023/04/13 11:10:00;;;;;;;6.15;1.80;;;19.40;99.90;;;;;;5130408;27;20198;-75
2023/04/13 11:12:31;;;;;;;3.83;1.38;;;19.40;99.90;;;;;;5134537;27;20302;-75
2023/04/13 11:15:02;;;;;;;4.15;1.30;;;19.40;99.90;;;;;;5131910;27;20645;-75
2023/04/13 11:17:33;;;;;;;7.00;1.73;;;19.30;99.90;;;;;;5127572;27;20192;-76
2023/04/13 11:20:09;;;;;;;6.35;1.80;;;19.30;99.90;;;;;;5129435;27;20198;-76
2023/04/13 11:22:44;;;;;;;5.70;1.63;;;19.30;99.90;;;;;;5131328;27;20644;-77
2023/04/13 11:25:20;;;;;;;3.97;1.40;;;19.40;99.90;;;;;;5129950;27;20198;-75
2023/04/13 11:27:58;;;;;;;3.75;1.30;;;19.30;99.90;;;;;;5121104;27;20197;-75
2023/04/13 11:30:30;;;;;;;4.00;1.20;;;19.30;99.90;;;;;;5130499;28;20208;-77
2023/04/13 11:33:02;;;;;;;4.47;1.40;;;19.40;99.90;;;;;;5130929;27;20209;-76
2023/04/13 11:35:33;;;;;;;2.50;1.23;;;19.40;99.90;;;;;;5118383;27;20190;-76
2023/04/13 11:38:05;;;;;;;6.07;1.58;;;19.40;99.90;;;;;;5131369;27;20201;-76
2023/04/13 11:40:42;;;;;;;5.85;1.27;;;19.40;99.90;;;;;;5129406;28;20293;-76
2023/04/13 11:43:15;;;;;;;6.47;1.60;;;19.40;99.90;;;;;;5131410;27;20280;-76
2023/04/13 11:45:47;;;;;;;6.82;1.30;;;19.30;99.90;;;;;;5122139;27;20195;-76
2023/04/13 11:48:19;;;;;;;6.85;1.42;;;19.30;99.90;;;;;;5125035;28;20673;-76
2023/04/13 11:50:51;;;;;;;5.18;1.45;;;19.30;99.90;;;;;;5115574;28;20201;-77
2023/04/13 11:53:23;;;;;;;5.03;1.45;;;19.30;99.90;;;;;;5110978;28;20202;-77
2023/04/13 11:55:56;;;;;;;4.68;1.50;;;19.40;99.90;;;;;;5128893;28;20202;-76
2023/04/13 11:58:28;;;;;;;3.58;1.50;;;19.30;99.90;;;;;;5129260;27;20205;-77
2023/04/13 12:00:59;;;;;;;3.67;1.38;;;19.30;99.90;;;;;;5135538;27;20239;-76
2023/04/13 12:03:30;;;;;;;5.55;1.30;;;19.20;99.90;;;;;;5145162;27;20254;-75
2023/04/13 12:06:04;;;;;;;3.67;1.33;;;19.10;99.90;;;;;;5137458;27;20569;-76
2023/04/13 12:08:37;;;;;;;4.65;1.60;;;19.10;99.90;;;;;;5141143;27;20198;-75
2023/04/13 12:11:11;;;;;;;4.28;1.23;;;19.10;99.90;;;;;;5132042;27;20218;-75
2023/04/13 12:13:43;;;;;;;4.10;1.20;;;19.10;99.90;;;;;;5139622;27;20193;-76
2023/04/13 12:16:25;;;;;;;6.82;1.70;;;19.00;99.90;;;;;;5122364;27;20713;-75
2023/04/13 12:18:57;;;;;;;3.33;1.30;;;19.10;99.90;;;;;;5123526;27;20198;-77
2023/04/13 12:21:28;;;;;;;5.80;1.50;;;19.10;99.90;;;;;;5140717;27;20688;-75
2023/04/13 12:24:01;;;;;;;2.83;1.10;;;19.10;99.90;;;;;;5127642;27;20313;-75
2023/04/13 12:26:40;;;;;;;4.45;1.60;;;19.10;99.90;;;;;;5140754;27;20194;-76
2023/04/13 12:29:16;;;;;;;3.40;1.42;;;19.10;99.90;;;;;;5134301;27;20201;-76
2023/04/13 12:31:48;;;;;;;4.25;1.30;;;19.20;99.90;;;;;;5135480;27;20202;-76
2023/04/13 12:34:19;;;;;;;4.07;1.35;;;19.20;99.90;;;;;;5147981;27;20272;-76
2023/04/13 12:36:51;;;;;;;3.30;1.17;;;19.20;99.90;;;;;;5138627;27;20285;-76
2023/04/13 12:39:22;;;;;;;5.80;1.65;;;19.20;99.90;;;;;;5141414;27;20197;-76
2023/04/13 12:41:55;;;;;;;4.63;1.30;;;19.10;99.90;;;;;;5138813;27;20229;-75
2023/04/13 12:44:28;;;;;;;5.25;1.20;;;19.10;99.90;;;;;;5132011;27;20262;-76
2023/04/13 12:46:59;;;;;;;3.95;1.00;;;18.90;99.90;;;;;;5120370;27;20195;-76
2023/04/13 12:49:31;;;;;;;3.88;1.10;;;18.90;99.90;;;;;;5136718;27;20228;-77
2023/04/13 12:52:02;;;;;;;4.40;1.08;;;18.90;99.90;;;;;;5136534;27;20201;-76
2023/04/13 12:54:33;;;;;;;4.80;1.15;;;19.00;99.90;;;;;;5139960;27;20228;-77
2023/04/13 12:57:06;;;;;;;3.88;1.25;;;18.90;99.90;;;;;;5129479;27;20198;-76
2023/04/13 12:59:37;;;;;;;4.43;1.25;;;18.90;99.90;;;;;;5142342;27;20193;-76
2023/04/13 13:02:08;;;;;;;6.07;1.20;;;19.00;99.90;;;;;;5125380;27;20531;-70
2023/04/13 13:04:43;;;;;;;4.47;1.00;;;19.00;99.90;;;;;;5131370;27;20204;-77
2023/04/13 13:07:14;;;;;;;5.65;1.30;;;19.00;99.90;;;;;;5134371;27;20201;-76
2023/04/13 13:09:45;;;;;;;6.60;1.48;;;19.00;99.90;;;;;;5114003;28;20322;-75
2023/04/13 13:12:18;;;;;;;4.47;1.08;;;19.00;99.90;;;;;;5126961;27;20217;-76
2023/04/13 13:14:49;;;;;;;5.47;1.20;;;19.10;99.90;;;;;;5129255;27;20194;-75